createdAt,value
2022-11-15T00:00:49.196Z,92.9
2022-11-15T00:02:05.499Z,92.8
2022-11-15T00:03:21.785Z,92.8
2022-11-15T00:04:38.062Z,93
2022-11-15T00:05:54.375Z,93.2
2022-11-15T00:07:10.668Z,93.2
2022-11-15T00:08:25.971Z,93.2
2022-11-15T00:09:42.259Z,93.4
2022-11-15T00:10:58.555Z,93.2
2022-11-15T00:12:14.862Z,93.1
2022-11-15T00:13:31.148Z,92.8
2022-11-15T00:14:47.438Z,92.7
2022-11-15T00:16:03.733Z,92.8
2022-11-15T00:17:20.022Z,92.7
2022-11-15T00:18:36.319Z,92.6
2022-11-15T00:19:52.615Z,92.4
2022-11-15T00:21:08.906Z,92.5
2022-11-15T00:22:25.193Z,92.4
2022-11-15T00:23:41.494Z,92.6
2022-11-15T00:24:56.819Z,92.8
2022-11-15T00:26:13.091Z,92.6
2022-11-15T00:27:29.376Z,92.4
2022-11-15T00:28:45.691Z,92.3
2022-11-15T00:30:01.965Z,92.5
2022-11-15T00:31:18.271Z,92.4
2022-11-15T00:32:34.565Z,91.9
2022-11-15T00:33:50.844Z,91.8
2022-11-15T00:35:07.150Z,91.6
2022-11-15T00:36:23.463Z,91.4
2022-11-15T00:37:39.754Z,91.8
2022-11-15T00:38:56.029Z,92
2022-11-15T00:40:12.325Z,91.9
2022-11-15T00:41:27.639Z,92.1
2022-11-15T00:42:43.933Z,91.6
2022-11-15T00:44:00.231Z,91.6
2022-11-15T00:45:16.521Z,91.4
2022-11-15T00:46:32.813Z,91.3
2022-11-15T00:47:49.101Z,91.1
2022-11-15T00:49:05.391Z,91.3
2022-11-15T00:50:21.695Z,91.3
2022-11-15T00:51:37.000Z,91.2
2022-11-15T00:52:54.276Z,91.4
2022-11-15T00:54:10.569Z,91.1
2022-11-15T00:55:26.860Z,91
2022-11-15T00:56:43.178Z,90.9
2022-11-15T00:57:58.463Z,90.9
2022-11-15T00:59:14.768Z,90.7
2022-11-15T01:00:31.059Z,90.8
2022-11-15T01:01:47.350Z,90.8
2022-11-15T01:03:03.649Z,90.9
2022-11-15T01:04:19.923Z,91.1
2022-11-15T01:05:36.238Z,91.3
2022-11-15T01:06:52.514Z,91.3
2022-11-15T01:08:08.821Z,91.3
2022-11-15T01:09:25.127Z,91.5
2022-11-15T01:10:41.403Z,91.6
2022-11-15T01:11:57.716Z,91.7
2022-11-15T01:13:13.998Z,91.8
2022-11-15T01:14:29.297Z,91.6
2022-11-15T01:15:45.600Z,91.3
2022-11-15T01:17:01.888Z,91.2
2022-11-15T01:18:18.174Z,91.1
2022-11-15T01:19:34.493Z,90.9
2022-11-15T01:20:50.770Z,90.8
2022-11-15T01:22:07.068Z,90.9
2022-11-15T01:23:23.349Z,90.8
2022-11-15T01:24:39.644Z,90.8
2022-11-15T01:25:55.953Z,90.8
2022-11-15T01:27:12.237Z,90.8
2022-11-15T01:28:28.548Z,90.5
2022-11-15T01:29:44.837Z,90
2022-11-15T01:31:00.152Z,89.7
2022-11-15T01:32:16.438Z,89.5
2022-11-15T01:33:32.717Z,89.5
2022-11-15T01:34:49.026Z,89.3
2022-11-15T01:36:05.321Z,89.2
2022-11-15T01:37:21.607Z,89.1
2022-11-15T01:38:37.889Z,88.9
2022-11-15T01:39:54.185Z,88.9
2022-11-15T01:41:10.496Z,88.8
2022-11-15T01:42:26.772Z,88.5
2022-11-15T01:43:43.076Z,88.5
2022-11-15T01:44:59.372Z,88.1
2022-11-15T01:46:15.659Z,87.5
2022-11-15T01:47:30.971Z,87.4
2022-11-15T01:48:47.285Z,87.2
2022-11-15T01:50:03.565Z,87
2022-11-15T01:51:19.854Z,86.8
2022-11-15T01:52:36.138Z,86.6
2022-11-15T01:53:52.456Z,86.4
2022-11-15T01:55:08.729Z,86.4
2022-11-15T01:56:25.026Z,86.2
2022-11-15T01:57:41.324Z,86.1
2022-11-15T01:58:57.620Z,86.2
2022-11-15T02:00:13.923Z,86.1
2022-11-15T02:01:30.197Z,85.8
2022-11-15T02:02:46.513Z,85.6
2022-11-15T02:04:01.828Z,85.5
2022-11-15T02:05:18.109Z,85.5
2022-11-15T02:06:34.405Z,85.3
2022-11-15T02:07:50.707Z,85.5
2022-11-15T02:09:06.987Z,85.5
2022-11-15T02:10:23.272Z,85.4
2022-11-15T02:11:39.584Z,85.4
2022-11-15T02:12:55.868Z,85.5
2022-11-15T02:14:12.165Z,85.7
2022-11-15T02:15:28.463Z,85.9
2022-11-15T02:16:44.761Z,85.7
2022-11-15T02:18:01.037Z,85.7
2022-11-15T02:19:17.339Z,85.7
2022-11-15T02:20:32.641Z,85.8
2022-11-15T02:21:48.948Z,85.9
2022-11-15T02:23:05.237Z,86
2022-11-15T02:24:21.531Z,86.2
2022-11-15T02:25:37.812Z,86.3
2022-11-15T02:26:54.130Z,86.3
2022-11-15T02:28:10.409Z,86.5
2022-11-15T02:29:26.691Z,86.5
2022-11-15T02:30:42.997Z,86.3
2022-11-15T02:31:59.311Z,86.7
2022-11-15T02:33:15.592Z,86.8
2022-11-15T02:34:31.890Z,87
2022-11-15T02:35:48.180Z,86.7
2022-11-15T02:37:03.474Z,86.7
2022-11-15T02:38:19.766Z,86.7
2022-11-15T02:39:36.070Z,86.7
2022-11-15T02:40:52.365Z,86.8
2022-11-15T02:42:08.670Z,86.8
2022-11-15T02:43:24.939Z,86.9
2022-11-15T02:44:41.244Z,86.9
2022-11-15T02:45:57.531Z,86.9
2022-11-15T02:47:13.825Z,87
2022-11-15T02:48:30.139Z,87.1
2022-11-15T02:49:46.410Z,87.1
2022-11-15T02:51:02.719Z,87.3
2022-11-15T02:52:18.997Z,87.2
2022-11-15T02:53:34.332Z,86.7
2022-11-15T02:54:50.617Z,86.7
2022-11-15T02:56:06.903Z,86.5
2022-11-15T02:57:23.209Z,86.3
2022-11-15T02:58:39.480Z,86.5
2022-11-15T02:59:55.797Z,86.5
2022-11-15T03:01:12.087Z,86.5
2022-11-15T03:02:28.373Z,86.8
2022-11-15T03:03:44.670Z,87
2022-11-15T03:05:00.966Z,87.2
2022-11-15T03:06:17.261Z,87.2
2022-11-15T03:07:33.568Z,87.3
2022-11-15T03:08:49.844Z,87.5
2022-11-15T03:10:05.171Z,87.6
2022-11-15T03:11:21.447Z,87.6
2022-11-15T03:12:37.751Z,87.8
2022-11-15T03:13:54.028Z,87.9
2022-11-15T03:15:10.319Z,88
2022-11-15T03:16:26.621Z,88.3
2022-11-15T03:17:42.917Z,88.5
2022-11-15T03:18:59.204Z,88.5
2022-11-15T03:20:15.497Z,88.8
2022-11-15T03:21:31.793Z,89
2022-11-15T03:22:48.106Z,88.7
2022-11-15T03:24:04.395Z,88.7
2022-11-15T03:25:20.688Z,88.8
2022-11-15T03:26:35.989Z,88.8
2022-11-15T03:27:52.292Z,88.9
2022-11-15T03:29:08.572Z,88.8
2022-11-15T03:30:24.876Z,88.8
2022-11-15T03:31:41.182Z,88.9
2022-11-15T03:32:57.445Z,89
2022-11-15T03:34:13.754Z,89
2022-11-15T03:35:30.048Z,89.2
2022-11-15T03:36:46.335Z,89
2022-11-15T03:38:02.644Z,89.2
2022-11-15T03:39:18.942Z,88.9
2022-11-15T03:40:35.220Z,88.9
2022-11-15T03:41:51.518Z,88.9
2022-11-15T03:43:06.824Z,88.8
2022-11-15T03:44:23.120Z,88.9
2022-11-15T03:45:39.412Z,88.9
2022-11-15T03:46:55.714Z,89
2022-11-15T03:48:12.003Z,89.3
2022-11-15T03:49:28.283Z,89.2
2022-11-15T03:50:44.603Z,89.5
2022-11-15T03:52:00.890Z,89.5
2022-11-15T03:53:17.184Z,89.3
2022-11-15T03:54:33.471Z,89.5
2022-11-15T03:55:49.774Z,89.5
2022-11-15T03:57:06.055Z,89.5
2022-11-15T03:58:22.351Z,89.5
2022-11-15T03:59:37.655Z,89.5
2022-11-15T04:00:53.963Z,89.5
2022-11-15T04:02:10.248Z,89.7
2022-11-15T04:03:26.561Z,89.6
2022-11-15T04:04:42.834Z,89.7
2022-11-15T04:05:59.134Z,90
2022-11-15T04:07:14.433Z,89.9
2022-11-15T04:08:30.729Z,89.7
2022-11-15T04:09:47.045Z,89.5
2022-11-15T04:11:03.324Z,89.5
2022-11-15T04:12:19.620Z,89.6
2022-11-15T04:13:35.928Z,89.7
2022-11-15T04:14:52.210Z,89.6
2022-11-15T04:16:08.511Z,89.6
2022-11-15T04:17:24.799Z,89.6
2022-11-15T04:18:41.084Z,89.5
2022-11-15T04:19:57.400Z,89.7
2022-11-15T04:21:13.674Z,89.8
2022-11-15T04:22:29.975Z,89.6
2022-11-15T04:23:45.283Z,89.3
2022-11-15T04:25:01.569Z,89.2
2022-11-15T04:26:17.878Z,89.1
2022-11-15T04:27:34.174Z,88.9
2022-11-15T04:28:50.469Z,88.8
2022-11-15T04:30:06.751Z,88.8
2022-11-15T04:31:23.054Z,88.9
2022-11-15T04:32:39.345Z,88.9
2022-11-15T04:33:55.634Z,88.9
2022-11-15T04:35:11.928Z,88.8
2022-11-15T04:36:28.214Z,88.9
2022-11-15T04:37:44.512Z,88.8
2022-11-15T04:39:00.818Z,88.5
2022-11-15T04:40:16.120Z,88.6
2022-11-15T04:41:32.416Z,88.6
2022-11-15T04:42:48.703Z,88.6
2022-11-15T04:44:04.998Z,88.6
2022-11-15T04:45:21.307Z,88.6
2022-11-15T04:46:37.591Z,88.7
2022-11-15T04:47:53.896Z,88.7
2022-11-15T04:49:10.166Z,88.7
2022-11-15T04:50:26.463Z,88.7
2022-11-15T04:51:42.765Z,88.7
2022-11-15T04:52:59.066Z,88.8
2022-11-15T04:54:15.365Z,88.8
2022-11-15T04:55:31.647Z,88.5
2022-11-15T04:56:46.949Z,88.4
2022-11-15T04:58:03.000Z,88.4
2022-11-15T04:59:19.536Z,88.3
2022-11-15T05:00:35.855Z,88.3
2022-11-15T05:01:52.133Z,88.2
2022-11-15T05:03:08.437Z,88.1
2022-11-15T05:04:24.732Z,88.2
2022-11-15T05:05:41.013Z,88.2
2022-11-15T05:06:57.308Z,88.3
2022-11-15T05:08:13.603Z,88.2
2022-11-15T05:09:29.904Z,88.3
2022-11-15T05:10:46.193Z,88.6
2022-11-15T05:12:02.477Z,88.7
2022-11-15T05:13:17.795Z,88.4
2022-11-15T05:14:34.076Z,88.4
2022-11-15T05:15:50.375Z,88.7
2022-11-15T05:17:06.686Z,88.8
2022-11-15T05:18:22.978Z,89
2022-11-15T05:19:39.274Z,89.1
2022-11-15T05:20:55.565Z,89.3
2022-11-15T05:22:11.852Z,89.5
2022-11-15T05:23:28.137Z,89.3
2022-11-15T05:24:44.441Z,89.3
2022-11-15T05:26:00.721Z,89.5
2022-11-15T05:27:17.018Z,89.5
2022-11-15T05:28:33.323Z,89.5
2022-11-15T05:29:48.629Z,89.5
2022-11-15T05:31:04.926Z,89.3
2022-11-15T05:32:21.219Z,89.3
2022-11-15T05:33:37.518Z,89.3
2022-11-15T05:34:53.811Z,89.5
2022-11-15T05:36:10.089Z,89.5
2022-11-15T05:37:26.385Z,89.3
2022-11-15T05:38:42.694Z,89.7
2022-11-15T05:39:58.976Z,90
2022-11-15T05:41:15.287Z,90.1
2022-11-15T05:42:31.568Z,90.2
2022-11-15T05:43:47.852Z,90.4
2022-11-15T05:45:04.160Z,90.7
2022-11-15T05:46:19.463Z,90.4
2022-11-15T05:47:35.759Z,90.4
2022-11-15T05:48:52.008Z,90.5
2022-11-15T05:50:08.293Z,90.7
2022-11-15T05:51:24.533Z,90.7
2022-11-15T05:52:40.789Z,90.7
2022-11-15T05:53:57.068Z,90.9
2022-11-15T05:55:13.382Z,91
2022-11-15T05:56:29.672Z,91.1
2022-11-15T05:57:45.927Z,91.1
2022-11-15T05:59:02.170Z,91.1
2022-11-15T06:00:18.417Z,91.3
2022-11-15T06:01:34.637Z,91.2
2022-11-15T06:02:49.894Z,91
2022-11-15T06:04:06.142Z,91
2022-11-15T06:05:22.385Z,90.9
2022-11-15T06:06:38.620Z,90.8
2022-11-15T06:07:54.873Z,90.8
2022-11-15T06:09:11.100Z,90.8
2022-11-15T06:10:27.334Z,90.8
2022-11-15T06:11:43.590Z,90.8
2022-11-15T06:12:59.818Z,90.7
2022-11-15T06:14:16.052Z,90.6
2022-11-15T06:15:32.307Z,90.6
2022-11-15T06:16:48.542Z,90.8
2022-11-15T06:18:04.782Z,90.7
2022-11-15T06:19:20.000Z,90.4
2022-11-15T06:20:36.281Z,90.3
2022-11-15T06:21:52.516Z,90.3
2022-11-15T06:23:08.767Z,90.3
2022-11-15T06:24:24.997Z,90.3
2022-11-15T06:25:41.241Z,90.3
2022-11-15T06:26:57.480Z,90.3
2022-11-15T06:28:13.708Z,90
2022-11-15T06:29:29.955Z,90.1
2022-11-15T06:30:46.192Z,90.1
2022-11-15T06:32:02.440Z,90.1
2022-11-15T06:33:18.687Z,90.1
2022-11-15T06:34:34.925Z,89.9
2022-11-15T06:35:50.185Z,90.1
2022-11-15T06:37:06.411Z,90.1
2022-11-15T06:38:22.648Z,90.1
2022-11-15T06:39:38.904Z,90.2
2022-11-15T06:40:55.130Z,90.3
2022-11-15T06:42:11.372Z,90.3
2022-11-15T06:43:27.615Z,90.3
2022-11-15T06:44:43.862Z,90.5
2022-11-15T06:46:00.107Z,90.6
2022-11-15T06:47:16.335Z,90.7
2022-11-15T06:48:32.580Z,90.9
2022-11-15T06:49:48.808Z,91.2
2022-11-15T06:51:05.048Z,90.6
2022-11-15T06:52:20.304Z,90.4
2022-11-15T06:53:36.539Z,90.3
2022-11-15T06:54:52.794Z,90.1
2022-11-15T06:56:09.038Z,90
2022-11-15T06:57:25.258Z,90
2022-11-15T06:58:41.517Z,89.9
2022-11-15T06:59:57.736Z,89.9
2022-11-15T07:01:13.985Z,89.8
2022-11-15T07:02:30.222Z,89.8
2022-11-15T07:03:46.466Z,89.9
2022-11-15T07:05:02.703Z,89.5
2022-11-15T07:06:18.937Z,89.2
2022-11-15T07:07:35.199Z,89
2022-11-15T07:08:50.445Z,88.9
2022-11-15T07:10:06.681Z,88.8
2022-11-15T07:11:22.935Z,88.7
2022-11-15T07:12:39.167Z,88.5
2022-11-15T07:13:55.396Z,88.3
2022-11-15T07:15:11.640Z,88.3
2022-11-15T07:16:27.883Z,88.2
2022-11-15T07:17:44.119Z,88.1
2022-11-15T07:19:00.352Z,88.1
2022-11-15T07:20:16.597Z,88
2022-11-15T07:21:32.841Z,87.9
2022-11-15T07:22:49.073Z,87.4
2022-11-15T07:24:05.319Z,86.9
2022-11-15T07:25:20.580Z,86.5
2022-11-15T07:26:36.820Z,86.2
2022-11-15T07:27:53.058Z,86
2022-11-15T07:29:09.288Z,85.8
2022-11-15T07:30:25.544Z,85.9
2022-11-15T07:31:41.765Z,85.5
2022-11-15T07:32:58.015Z,85.3
2022-11-15T07:34:14.263Z,85.3
2022-11-15T07:35:30.492Z,85.4
2022-11-15T07:36:46.738Z,85.5
2022-11-15T07:38:02.984Z,85.3
2022-11-15T07:39:19.209Z,85.1
2022-11-15T07:40:35.451Z,84.7
2022-11-15T07:41:50.698Z,84.6
2022-11-15T07:43:06.948Z,84.4
2022-11-15T07:44:23.184Z,84.4
2022-11-15T07:45:39.428Z,84.4
2022-11-15T07:46:55.658Z,84.3
2022-11-15T07:48:11.898Z,84.2
2022-11-15T07:49:28.156Z,84.1
2022-11-15T07:50:44.403Z,84
2022-11-15T07:52:00.635Z,84
2022-11-15T07:53:16.860Z,84
2022-11-15T07:54:33.105Z,83.9
2022-11-15T07:55:49.342Z,83.9
2022-11-15T07:57:05.581Z,83.9
2022-11-15T07:58:20.833Z,83.9
2022-11-15T07:59:37.086Z,83.9
2022-11-15T08:00:53.322Z,83.9
2022-11-15T08:02:09.569Z,83.9
2022-11-15T08:03:25.792Z,83.9
2022-11-15T08:04:42.052Z,83.8
2022-11-15T08:05:58.276Z,83.9
2022-11-15T08:07:14.528Z,83.9
2022-11-15T08:08:30.761Z,83.5
2022-11-15T08:09:46.990Z,83.2
2022-11-15T08:11:03.246Z,83
2022-11-15T08:12:19.476Z,83
2022-11-15T08:13:35.714Z,82.8
2022-11-15T08:14:50.972Z,82.6
2022-11-15T08:16:07.222Z,82.4
2022-11-15T08:17:23.461Z,82.2
2022-11-15T08:18:39.710Z,82
2022-11-15T08:19:55.931Z,81.8
2022-11-15T08:21:12.176Z,81.9
2022-11-15T08:22:27.426Z,81.8
2022-11-15T08:23:43.665Z,81.5
2022-11-15T08:24:59.917Z,81.2
2022-11-15T08:26:16.147Z,80.9
2022-11-15T08:27:32.394Z,80.9
2022-11-15T08:28:48.643Z,80.6
2022-11-15T08:30:04.868Z,80.5
2022-11-15T08:31:21.113Z,80.3
2022-11-15T08:32:37.353Z,80.4
2022-11-15T08:33:53.580Z,80.2
2022-11-15T08:35:09.826Z,80.2
2022-11-15T08:36:26.057Z,79.9
2022-11-15T08:37:42.297Z,79.7
2022-11-15T08:38:57.553Z,79.5
2022-11-15T08:40:13.814Z,79.5
2022-11-15T08:41:30.044Z,79.4
2022-11-15T08:42:46.290Z,79.2
2022-11-15T08:44:02.525Z,79.1
2022-11-15T08:45:18.765Z,79.2
2022-11-15T08:46:34.990Z,79.3
2022-11-15T08:47:51.245Z,79.1
2022-11-15T08:49:07.480Z,79.1
2022-11-15T08:50:23.721Z,79.2
2022-11-15T08:51:39.954Z,78.7
2022-11-15T08:52:56.205Z,78.4
2022-11-15T08:54:12.441Z,78.4
2022-11-15T08:55:27.704Z,78.4
2022-11-15T08:56:43.930Z,78.3
2022-11-15T08:58:00.171Z,78.4
2022-11-15T08:59:16.408Z,78.4
2022-11-15T09:00:32.651Z,78.2
2022-11-15T09:01:48.895Z,78.2
2022-11-15T09:03:05.136Z,78.1
2022-11-15T09:04:21.366Z,78.3
2022-11-15T09:05:37.622Z,78.4
2022-11-15T09:06:53.838Z,78
2022-11-15T09:08:10.093Z,77.8
2022-11-15T09:09:26.336Z,77.7
2022-11-15T09:10:42.567Z,77.6
2022-11-15T09:11:57.826Z,77.5
2022-11-15T09:13:14.072Z,77.3
2022-11-15T09:14:30.304Z,77.3
2022-11-15T09:15:46.556Z,77.1
2022-11-15T09:17:02.785Z,77.2
2022-11-15T09:18:19.028Z,77.1
2022-11-15T09:19:35.269Z,77
2022-11-15T09:20:51.513Z,76.7
2022-11-15T09:22:07.747Z,76.6
2022-11-15T09:23:23.979Z,76.5
2022-11-15T09:24:40.221Z,76.4
2022-11-15T09:25:56.461Z,76.4
2022-11-15T09:27:12.698Z,76.5
2022-11-15T09:28:27.964Z,76.3
2022-11-15T09:29:44.199Z,76.2
2022-11-15T09:31:00.443Z,76.1
2022-11-15T09:32:16.673Z,76
2022-11-15T09:33:32.919Z,75.9
2022-11-15T09:34:49.145Z,75.7
2022-11-15T09:36:05.396Z,75.8
2022-11-15T09:37:21.622Z,75.4
2022-11-15T09:38:37.860Z,75.5
2022-11-15T09:39:54.102Z,75.4
2022-11-15T09:41:10.343Z,75.5
2022-11-15T09:42:26.582Z,75.4
2022-11-15T09:43:42.842Z,75.1
2022-11-15T09:44:58.089Z,74.8
2022-11-15T09:46:14.321Z,75
2022-11-15T09:47:30.579Z,74.9
2022-11-15T09:48:46.791Z,74.7
2022-11-15T09:50:03.056Z,74.3
2022-11-15T09:51:19.282Z,74
2022-11-15T09:52:35.525Z,73.9
2022-11-15T09:53:51.762Z,73.7
2022-11-15T09:55:08.012Z,73.9
2022-11-15T09:56:24.252Z,74
2022-11-15T09:57:40.481Z,74
2022-11-15T09:58:56.725Z,74.2
2022-11-15T10:00:12.951Z,74.4
2022-11-15T10:01:28.217Z,74.2
2022-11-15T10:02:44.461Z,73.7
2022-11-15T10:04:00.694Z,73.6
2022-11-15T10:05:16.923Z,73.7
2022-11-15T10:06:33.172Z,73.9
2022-11-15T10:07:49.425Z,73.9
2022-11-15T10:09:05.668Z,73.8
2022-11-15T10:10:21.901Z,73.7
2022-11-15T10:11:38.137Z,73.5
2022-11-15T10:12:54.370Z,73.6
2022-11-15T10:14:10.603Z,73.5
2022-11-15T10:15:26.839Z,73.4
2022-11-15T10:16:43.077Z,73.5
2022-11-15T10:17:58.342Z,73.5
2022-11-15T10:19:14.593Z,73.3
2022-11-15T10:20:30.828Z,72.7
2022-11-15T10:21:47.062Z,72.7
2022-11-15T10:23:03.297Z,72.9
2022-11-15T10:24:19.539Z,72.9
2022-11-15T10:25:35.768Z,72.6
2022-11-15T10:26:52.013Z,72.8
2022-11-15T10:28:08.255Z,72.8
2022-11-15T10:29:24.494Z,72.6
2022-11-15T10:30:40.752Z,72.4
2022-11-15T10:31:56.982Z,72
2022-11-15T10:33:13.225Z,71.8
2022-11-15T10:34:28.488Z,71.8
2022-11-15T10:35:44.718Z,71.9
2022-11-15T10:37:00.966Z,71.8
2022-11-15T10:38:17.193Z,71.9
2022-11-15T10:39:33.433Z,71.6
2022-11-15T10:40:49.676Z,71.5
2022-11-15T10:42:05.909Z,71.1
2022-11-15T10:43:22.150Z,70.9
2022-11-15T10:44:38.393Z,70.8
2022-11-15T10:45:54.637Z,70.6
2022-11-15T10:47:10.870Z,70.6
2022-11-15T10:48:27.113Z,70.3
2022-11-15T10:49:43.341Z,70.3
2022-11-15T10:50:58.602Z,70.6
2022-11-15T10:52:14.846Z,70.6
2022-11-15T10:53:31.090Z,70.9
2022-11-15T10:54:47.319Z,70.9
2022-11-15T10:56:03.579Z,71.2
2022-11-15T10:57:19.791Z,71.2
2022-11-15T10:58:36.052Z,71.1
2022-11-15T10:59:52.296Z,71
2022-11-15T11:01:08.512Z,70.9
2022-11-15T11:02:24.762Z,70.8
2022-11-15T11:03:40.994Z,70.7
2022-11-15T11:04:57.228Z,71.1
2022-11-15T11:06:13.474Z,70.9
2022-11-15T11:07:28.731Z,70.7
2022-11-15T11:08:44.991Z,70.6
2022-11-15T11:10:01.218Z,70.7
2022-11-15T11:11:17.442Z,70.5
2022-11-15T11:12:33.712Z,70.6
2022-11-15T11:13:49.937Z,70.3
2022-11-15T11:15:06.186Z,70.4
2022-11-15T11:16:22.418Z,70.4
2022-11-15T11:17:38.648Z,70.5
2022-11-15T11:18:54.900Z,70.5
2022-11-15T11:20:11.132Z,70.4
2022-11-15T11:21:27.362Z,70.4
2022-11-15T11:22:43.612Z,70.6
2022-11-15T11:23:58.866Z,70.8
2022-11-15T11:25:15.117Z,70.6
2022-11-15T11:26:31.359Z,70.7
2022-11-15T11:27:47.586Z,70.9
2022-11-15T11:29:03.831Z,70.7
2022-11-15T11:30:20.056Z,70.7
2022-11-15T11:31:36.291Z,71
2022-11-15T11:32:52.546Z,71
2022-11-15T11:34:08.800Z,71
2022-11-15T11:35:25.026Z,70.6
2022-11-15T11:36:41.254Z,70.6
2022-11-15T11:37:57.510Z,70.9
2022-11-15T11:39:13.743Z,70.7
2022-11-15T11:40:29.004Z,70.2
2022-11-15T11:41:45.226Z,70.3
2022-11-15T11:43:01.495Z,70
2022-11-15T11:44:17.708Z,70.1
2022-11-15T11:45:33.965Z,69.8
2022-11-15T11:46:50.197Z,69.6
2022-11-15T11:48:06.427Z,69.5
2022-11-15T11:49:22.676Z,69.7
2022-11-15T11:50:38.930Z,69.9
2022-11-15T11:51:55.146Z,69.3
2022-11-15T11:53:11.395Z,69.3
2022-11-15T11:54:27.624Z,68.8
2022-11-15T11:55:43.878Z,68.6
2022-11-15T11:56:59.113Z,68.5
2022-11-15T11:58:15.354Z,68.4
2022-11-15T11:59:31.606Z,68.6
2022-11-15T12:00:47.846Z,68.3
2022-11-15T12:02:04.000Z,68.5
2022-11-15T12:03:20.322Z,68.3
2022-11-15T12:04:36.562Z,68.4
2022-11-15T12:05:52.817Z,68.4
2022-11-15T12:07:09.042Z,67.9
2022-11-15T12:08:25.000Z,67.9
2022-11-15T12:09:41.524Z,67.7
2022-11-15T12:10:57.764Z,67.5
2022-11-15T12:12:14.006Z,67.5
2022-11-15T12:13:29.256Z,67.2
2022-11-15T12:14:45.483Z,67
2022-11-15T12:16:01.740Z,67.2
2022-11-15T12:17:17.964Z,67.5
2022-11-15T12:18:34.227Z,67.5
2022-11-15T12:19:50.458Z,67.2
2022-11-15T12:21:06.684Z,66.9
2022-11-15T12:22:22.926Z,66.8
2022-11-15T12:23:39.172Z,66.4
2022-11-15T12:24:55.000Z,66.9
2022-11-15T12:26:11.648Z,66.5
2022-11-15T12:27:27.880Z,66.4
2022-11-15T12:28:44.129Z,66.4
2022-11-15T12:29:59.400Z,66.1
2022-11-15T12:31:15.637Z,66.1
2022-11-15T12:32:31.862Z,66
2022-11-15T12:33:48.100Z,66
2022-11-15T12:35:04.328Z,66
2022-11-15T12:36:20.572Z,65.8
2022-11-15T12:37:35.851Z,65.9
2022-11-15T12:38:52.078Z,65.3
2022-11-15T12:40:08.320Z,65.5
2022-11-15T12:41:24.564Z,65.5
2022-11-15T12:42:40.794Z,65.7
2022-11-15T12:43:57.046Z,65.9
2022-11-15T12:45:13.285Z,65.9
2022-11-15T12:46:29.515Z,66.1
2022-11-15T12:47:45.761Z,65.9
2022-11-15T12:49:02.002Z,66.2
2022-11-15T12:50:18.236Z,65.9
2022-11-15T12:51:34.464Z,66
2022-11-15T12:52:50.718Z,66.3
2022-11-15T12:54:05.955Z,66.4
2022-11-15T12:55:22.197Z,66.3
2022-11-15T12:56:38.449Z,66.2
2022-11-15T12:57:54.689Z,66.2
2022-11-15T12:59:10.917Z,66.4
2022-11-15T13:00:27.155Z,66.4
2022-11-15T13:01:43.390Z,66.5
2022-11-15T13:02:59.641Z,67
2022-11-15T13:04:15.878Z,66.7
2022-11-15T13:05:32.110Z,66.5
2022-11-15T13:06:48.374Z,66.5
2022-11-15T13:08:04.608Z,66.4
2022-11-15T13:09:20.853Z,66.6
2022-11-15T13:10:36.088Z,66.5
2022-11-15T13:11:52.344Z,66.5
2022-11-15T13:13:08.586Z,66.6
2022-11-15T13:14:24.806Z,66.5
2022-11-15T13:15:41.055Z,66.4
2022-11-15T13:16:57.290Z,66.5
2022-11-15T13:18:13.515Z,66.2
2022-11-15T13:19:29.780Z,66.1
2022-11-15T13:20:46.023Z,65.9
2022-11-15T13:22:02.263Z,65.8
2022-11-15T13:23:18.486Z,65.6
2022-11-15T13:24:34.713Z,65.7
2022-11-15T13:25:50.959Z,65.6
2022-11-15T13:27:06.234Z,65.9
2022-11-15T13:28:22.474Z,65.8
2022-11-15T13:29:38.701Z,65.8
2022-11-15T13:30:54.939Z,65.5
2022-11-15T13:32:11.194Z,65.5
2022-11-15T13:33:27.431Z,65.5
2022-11-15T13:34:43.661Z,65.5
2022-11-15T13:35:59.891Z,65.4
2022-11-15T13:37:16.122Z,65.7
2022-11-15T13:38:32.362Z,65.4
2022-11-15T13:39:48.602Z,65.2
2022-11-15T13:41:04.840Z,65.2
2022-11-15T13:42:21.113Z,65.6
2022-11-15T13:43:36.356Z,65.3
2022-11-15T13:44:52.607Z,65.3
2022-11-15T13:46:08.834Z,65.1
2022-11-15T13:47:25.071Z,64.7
2022-11-15T13:48:41.327Z,64.9
2022-11-15T13:49:57.549Z,64.6
2022-11-15T13:51:13.801Z,64.6
2022-11-15T13:52:30.012Z,64.8
2022-11-15T13:53:46.253Z,64.7
2022-11-15T13:55:02.512Z,65.2
2022-11-15T13:56:18.745Z,65
2022-11-15T13:57:34.988Z,65.5
2022-11-15T13:58:51.212Z,65.4
2022-11-15T14:00:06.484Z,65.7
2022-11-15T14:01:22.721Z,65.5
2022-11-15T14:02:38.956Z,65.9
2022-11-15T14:03:55.202Z,66.3
2022-11-15T14:05:11.421Z,66.1
2022-11-15T14:06:27.681Z,66.3
2022-11-15T14:07:43.919Z,66.7
2022-11-15T14:09:00.142Z,66.5
2022-11-15T14:10:16.411Z,66.4
2022-11-15T14:11:32.618Z,66.4
2022-11-15T14:12:48.879Z,66.4
2022-11-15T14:14:05.099Z,66.6
2022-11-15T14:15:21.346Z,66.4
2022-11-15T14:16:36.611Z,66.5
2022-11-15T14:17:52.848Z,66.8
2022-11-15T14:19:09.075Z,67
2022-11-15T14:20:25.315Z,67
2022-11-15T14:21:41.571Z,67.1
2022-11-15T14:22:57.806Z,67
2022-11-15T14:24:14.046Z,67.3
2022-11-15T14:25:30.292Z,67.3
2022-11-15T14:26:46.540Z,67.3
2022-11-15T14:28:02.767Z,67.4
2022-11-15T14:29:19.003Z,67.6
2022-11-15T14:30:35.239Z,67.8
2022-11-15T14:31:51.472Z,67.9
2022-11-15T14:33:06.722Z,68.2
2022-11-15T14:34:22.969Z,68.3
2022-11-15T14:35:39.221Z,68.4
2022-11-15T14:36:55.452Z,68.8
2022-11-15T14:38:11.692Z,69.4
2022-11-15T14:39:27.918Z,69.6
2022-11-15T14:40:44.184Z,69.4
2022-11-15T14:42:00.412Z,69.5
2022-11-15T14:43:16.652Z,69.8
2022-11-15T14:44:32.873Z,70
2022-11-15T14:45:49.132Z,70.5
2022-11-15T14:47:05.354Z,70.6
2022-11-15T14:48:21.607Z,70.6
2022-11-15T14:49:36.875Z,70.8
2022-11-15T14:50:53.120Z,71
2022-11-15T14:52:09.363Z,71
2022-11-15T14:53:25.589Z,71
2022-11-15T14:54:41.816Z,71.2
2022-11-15T14:55:58.065Z,71.1
2022-11-15T14:57:14.295Z,71.5
2022-11-15T14:58:30.530Z,71.5
2022-11-15T14:59:46.763Z,71.7
2022-11-15T15:01:03.022Z,72.2
2022-11-15T15:02:19.252Z,72.5
2022-11-15T15:03:35.516Z,72.8
2022-11-15T15:04:51.746Z,73
2022-11-15T15:06:06.983Z,73.2
2022-11-15T15:07:23.221Z,73.3
2022-11-15T15:08:39.473Z,73.5
2022-11-15T15:09:55.695Z,73.5
2022-11-15T15:11:11.969Z,73.8
2022-11-15T15:12:28.202Z,74
2022-11-15T15:13:44.446Z,74.2
2022-11-15T15:15:00.668Z,74.6
2022-11-15T15:16:16.923Z,75
2022-11-15T15:17:33.136Z,75.4
2022-11-15T15:18:49.387Z,75.8
2022-11-15T15:20:05.626Z,76.4
2022-11-15T15:21:21.879Z,76.9
2022-11-15T15:22:37.123Z,76.8
2022-11-15T15:23:53.370Z,77.3
2022-11-15T15:25:09.605Z,77.7
2022-11-15T15:26:25.844Z,77.9
2022-11-15T15:27:42.064Z,78.3
2022-11-15T15:28:58.322Z,78.8
2022-11-15T15:30:14.567Z,79.1
2022-11-15T15:31:30.782Z,79.4
2022-11-15T15:32:47.040Z,79.8
2022-11-15T15:34:03.286Z,80.4
2022-11-15T15:35:19.516Z,80.7
2022-11-15T15:36:35.749Z,80.7
2022-11-15T15:37:51.978Z,80.9
2022-11-15T15:39:07.269Z,81.2
2022-11-15T15:40:23.492Z,81.4
2022-11-15T15:41:39.736Z,82.2
2022-11-15T15:42:55.975Z,82.9
2022-11-15T15:44:12.201Z,83.2
2022-11-15T15:45:28.431Z,83.8
2022-11-15T15:46:44.696Z,84.3
2022-11-15T15:48:00.927Z,84.9
2022-11-15T15:49:17.154Z,85.3
2022-11-15T15:50:33.422Z,85.4
2022-11-15T15:51:49.662Z,86.4
2022-11-15T15:53:05.879Z,86.9
2022-11-15T15:54:22.120Z,87.8
2022-11-15T15:55:37.367Z,88.6
2022-11-15T15:56:53.609Z,88.8
2022-11-15T15:58:09.840Z,89.1
2022-11-15T15:59:26.078Z,89.8
2022-11-15T16:00:42.328Z,89.9
2022-11-15T16:01:58.629Z,89.8
2022-11-15T16:03:14.910Z,90
2022-11-15T16:04:31.207Z,90.2
2022-11-15T16:05:47.509Z,90.3
2022-11-15T16:07:03.787Z,90.7
2022-11-15T16:08:20.096Z,91.1
2022-11-15T16:09:36.382Z,91.2
2022-11-15T16:10:52.685Z,91.6
2022-11-15T16:12:07.991Z,91.7
2022-11-15T16:13:24.277Z,92.3
2022-11-15T16:14:40.579Z,91.9
2022-11-15T16:15:56.865Z,91.8
2022-11-15T16:18:29.457Z,91.9
2022-11-15T16:19:45.755Z,91.9
2022-11-15T16:21:02.046Z,92
2022-11-15T16:22:18.332Z,92.3
2022-11-15T16:23:34.629Z,92.4
2022-11-15T16:24:50.919Z,92.5
2022-11-15T16:26:07.226Z,93.1
2022-11-15T16:27:23.512Z,93
2022-11-15T16:28:38.816Z,93.1
2022-11-15T16:29:55.116Z,93.1
2022-11-15T16:31:11.411Z,93
2022-11-15T16:32:27.694Z,93.1
2022-11-15T16:33:43.993Z,93.3
2022-11-15T16:35:00.285Z,93.4
2022-11-15T16:36:16.577Z,93.5
2022-11-15T16:37:32.870Z,93.5
2022-11-15T16:38:49.175Z,93.8
2022-11-15T16:40:05.468Z,93.8
2022-11-15T16:41:21.751Z,94
2022-11-15T16:42:38.047Z,94
2022-11-15T16:43:54.336Z,93.8
2022-11-15T16:45:09.657Z,93.8
2022-11-15T16:46:25.950Z,94
2022-11-15T16:47:42.236Z,94.1
2022-11-15T16:48:58.538Z,94.1
2022-11-15T16:50:14.817Z,94.3
2022-11-15T16:51:31.131Z,94.2
2022-11-15T16:52:46.434Z,94.3
2022-11-15T16:54:02.742Z,94.7
2022-11-15T16:55:19.025Z,95
2022-11-15T16:56:35.319Z,95.2
2022-11-15T16:57:51.602Z,95
2022-11-15T16:59:07.906Z,95
2022-11-15T17:00:24.194Z,95.1
2022-11-15T17:01:40.497Z,95